Time;durP1;ratioP1;P1;durP2;ratioP2;P2;SDS_P1;SDS_P2;PMS_P1;PMS_P2;Temp;Humidity;BMP_temperature;BMP_pressure;BME280_temperature;BME280_humidity;BME280_pressure;Samples;Min_cycle;Max_cycle;Signal;HPM_P1;HPM_P2
2022/01/27 00:07:36;;;;;;;7.80;3.50;;;;;;;0.69;85.46;100017.23;103227;1305;24243;-28
2022/01/27 00:12:31;;;;;;;6.50;4.70;;;;;;;0.42;86.40;100010.42;103205;1305;22875;-25
2022/01/27 00:15:08;;;;;;;16.50;8.10;;;;;;;0.69;85.41;100009.96;103201;1305;22757;-28
2022/01/27 00:17:39;;;;;;;9.20;4.50;;;;;;;0.85;83.76;99999.55;103226;1305;24262;-29
2022/01/27 00:20:06;;;;;;;4.30;3.00;;;;;;;0.57;85.23;99996.73;103191;1305;24221;-29
2022/01/27 00:22:31;;;;;;;6.00;4.00;;;;;;;0.45;86.28;99991.86;103202;1305;24307;-25
2022/01/27 00:24:58;;;;;;;10.10;6.30;;;;;;;0.76;84.75;99991.96;103189;1305;24335;-28
2022/01/27 00:27:24;;;;;;;8.50;3.90;;;;;;;0.58;85.21;99990.19;103206;1305;22526;-29
2022/01/27 00:29:49;;;;;;;9.80;6.50;;;;;;;0.42;85.74;99997.73;103270;1304;24560;-30
2022/01/27 00:32:15;;;;;;;12.30;4.20;;;;;;;0.78;84.88;100007.86;103197;1305;24368;-24
2022/01/27 00:34:41;;;;;;;9.50;5.80;;;;;;;0.90;83.45;100007.63;103179;1305;24451;-29
2022/01/27 00:37:07;;;;;;;15.20;5.70;;;;;;;0.77;84.49;99994.85;103274;1305;24308;-27
2022/01/27 00:39:33;;;;;;;7.40;3.80;;;;;;;0.67;84.70;99994.75;103061;1305;22523;-24
2022/01/27 00:41:58;;;;;;;16.50;5.20;;;;;;;0.77;84.76;99998.27;103207;1305;24328;-27
2022/01/27 00:44:24;;;;;;;12.10;4.50;;;;;;;0.74;84.39;100003.23;103049;1305;24225;-31
2022/01/27 00:46:50;;;;;;;15.30;9.30;;;;;;;0.52;85.83;99996.60;103313;1305;24252;-25
2022/01/27 00:49:15;;;;;;;11.90;6.50;;;;;;;0.79;84.54;99991.54;103194;1305;24233;-25
2022/01/27 00:51:45;;;;;;;18.40;8.90;;;;;;;0.53;85.48;99995.47;103229;1305;24190;-30
2022/01/27 00:56:49;;;;;;;9.30;6.60;;;;;;;1.06;83.95;99993.81;103192;1305;22524;-26
2022/01/27 01:01:49;;;;;;;12.70;7.40;;;;;;;0.62;85.49;99997.80;103249;1305;24396;-27
2022/01/27 01:04:23;;;;;;;15.00;6.10;;;;;;;1.08;83.34;99997.61;103222;1305;24378;-25
2022/01/27 01:06:50;;;;;;;17.10;9.20;;;;;;;1.07;83.65;99992.33;103168;1305;24324;-27
2022/01/27 01:10:03;;;;;;;10.60;6.30;;;;;;;0.99;83.54;99985.97;103287;1305;24312;-29
2022/01/27 01:14:38;;;;;;;21.90;10.30;;;;;;;0.68;85.30;99978.89;103248;1304;22518;-26
2022/01/27 01:17:15;;;;;;;7.80;4.40;;;;;;;1.08;83.92;99978.33;103125;1305;24217;-26
2022/01/27 01:19:56;;;;;;;12.70;6.60;;;;;;;0.89;84.37;99972.77;103121;1305;24290;-25
2022/01/27 01:29:55;;;;;;;17.60;8.20;;;;;;;0.72;86.59;99966.31;103205;1305;24140;-29
2022/01/27 01:34:52;;;;;;;14.70;4.50;;;;;;;0.60;86.87;99965.16;103279;1305;24184;-29
2022/01/27 01:37:19;;;;;;;9.60;6.40;;;;;;;0.87;85.91;99963.74;103177;1305;24253;-29
2022/01/27 01:39:44;;;;;;;8.50;4.50;;;;;;;0.76;86.22;99958.30;103194;1305;24195;-25
2022/01/27 01:42:11;;;;;;;15.30;9.30;;;;;;;0.76;86.22;99954.04;103206;1305;24247;-26
2022/01/27 01:44:37;;;;;;;14.00;5.00;;;;;;;0.70;86.90;99951.52;103193;1305;24221;-26
2022/01/27 01:47:04;;;;;;;23.00;11.00;;;;;;;0.89;85.33;99948.77;103243;1305;24302;-29
2022/01/27 01:49:30;;;;;;;7.40;3.90;;;;;;;0.70;86.51;99954.40;103253;1305;24337;-29
2022/01/27 01:51:57;;;;;;;9.20;5.20;;;;;;;0.38;88.50;99957.54;103175;1305;24222;-31
2022/01/27 01:54:22;;;;;;;13.40;6.10;;;;;;;0.51;87.88;99959.05;103180;1305;24282;-29
2022/01/27 01:56:48;;;;;;;22.10;5.90;;;;;;;0.53;88.19;99958.52;103183;1305;24276;-29
2022/01/27 01:59:14;;;;;;;12.20;5.80;;;;;;;0.33;88.78;99954.06;103242;1305;24324;-24
2022/01/27 02:01:40;;;;;;;10.10;4.30;;;;;;;0.65;88.18;99954.59;103188;1305;24262;-25
2022/01/27 02:04:08;;;;;;;15.20;9.30;;;;;;;0.69;87.53;99953.94;103199;1305;24273;-27
2022/01/27 02:06:41;;;;;;;4.10;1.90;;;;;;;0.89;86.75;99954.84;103220;1305;24269;-29
2022/01/27 02:19:09;;;;;;;20.60;10.50;;;;;;;0.82;87.25;99945.83;103186;1305;26144;-25
2022/01/27 02:21:43;;;;;;;7.70;4.80;;;;;;;0.76;87.13;99939.45;103188;1305;24206;-30
2022/01/27 02:24:09;;;;;;;18.80;9.50;;;;;;;0.77;87.37;99935.95;103298;1305;22893;-25
2022/01/27 02:26:35;;;;;;;12.00;6.10;;;;;;;0.74;87.34;99932.36;103209;1305;24297;-30
2022/01/27 02:29:00;;;;;;;18.30;11.70;;;;;;;0.51;88.56;99931.33;103175;1305;24287;-30
2022/01/27 02:31:26;;;;;;;18.50;11.80;;;;;;;0.58;88.76;99934.83;103217;1305;24169;-30
2022/01/27 02:33:56;;;;;;;10.50;5.00;;;;;;;1.12;86.49;99930.20;103177;1305;24304;-29
2022/01/27 02:36:23;;;;;;;24.90;11.20;;;;;;;0.74;87.33;99925.46;103280;1305;24179;-26
2022/01/27 02:38:49;;;;;;;11.30;6.90;;;;;;;0.80;87.43;99928.58;103228;1305;24269;-25
2022/01/27 02:41:16;;;;;;;21.60;14.00;;;;;;;0.85;87.40;99931.15;103195;1305;24431;-24
2022/01/27 02:43:42;;;;;;;24.10;12.10;;;;;;;1.00;86.94;99917.45;103183;1305;24313;-25
2022/01/27 02:46:09;;;;;;;21.90;11.50;;;;;;;0.95;86.39;99929.10;103137;1306;22642;-31
2022/01/27 02:48:35;;;;;;;10.80;4.70;;;;;;;0.99;86.71;99921.21;103228;1305;24212;-25
2022/01/27 02:51:00;;;;;;;18.90;5.50;;;;;;;0.43;88.88;99920.72;103165;1306;24346;-26
2022/01/27 02:53:26;;;;;;;23.60;7.00;;;;;;;0.69;88.90;99917.46;103192;1305;24359;-30
2022/01/27 02:55:52;;;;;;;16.00;6.40;;;;;;;0.47;89.27;99915.10;103208;1304;24182;-25
2022/01/27 02:58:17;;;;;;;16.40;7.20;;;;;;;0.41;89.65;99914.30;103008;1305;24214;-25
2022/01/27 03:00:43;;;;;;;19.50;13.50;;;;;;;0.61;89.30;99916.11;103178;1305;24220;-25
2022/01/27 03:03:09;;;;;;;14.30;5.40;;;;;;;0.63;88.73;99918.05;103196;1305;24333;-30
2022/01/27 03:05:34;;;;;;;16.70;6.30;;;;;;;0.44;89.96;99911.84;103158;1305;24305;-25
2022/01/27 03:08:00;;;;;;;10.60;4.80;;;;;;;0.39;90.06;99909.33;103203;1305;24240;-30
2022/01/27 03:10:29;;;;;;;16.00;6.10;;;;;;;0.54;89.68;99917.06;103223;1305;24292;-26
2022/01/27 03:12:59;;;;;;;9.90;5.60;;;;;;;0.37;90.02;99918.13;103193;1305;25401;-29
2022/01/27 03:15:26;;;;;;;15.20;5.10;;;;;;;0.34;90.46;99920.67;103189;1305;24329;-25
2022/01/27 03:17:52;;;;;;;8.60;4.30;;;;;;;0.57;89.90;99919.57;103233;1305;24425;-24
2022/01/27 03:20:18;;;;;;;12.50;6.40;;;;;;;0.45;89.85;99915.56;103229;1305;24369;-29
2022/01/27 03:22:44;;;;;;;17.80;7.30;;;;;;;0.38;90.73;99914.05;103211;1305;24383;-29
2022/01/27 03:25:10;;;;;;;23.60;4.70;;;;;;;0.31;91.23;99918.63;103209;1305;24185;-29
2022/01/27 03:27:35;;;;;;;9.70;5.10;;;;;;;0.30;91.10;99914.30;103156;1305;24340;-25
2022/01/27 03:30:01;;;;;;;17.50;6.60;;;;;;;0.34;90.83;99903.46;103212;1305;24446;-29
2022/01/27 03:32:27;;;;;;;13.30;5.60;;;;;;;0.72;89.45;99900.25;103173;1305;24259;-25
2022/01/27 03:34:53;;;;;;;13.50;6.10;;;;;;;0.43;90.18;99900.79;103114;1305;24183;-27
2022/01/27 03:37:19;;;;;;;17.50;6.50;;;;;;;0.71;89.53;99896.13;103252;1305;24364;-25
2022/01/27 03:39:45;;;;;;;9.80;4.50;;;;;;;0.71;88.49;99897.70;103181;1305;24242;-29
2022/01/27 03:42:11;;;;;;;14.70;5.50;;;;;;;0.69;88.89;99890.26;103212;1305;24270;-27
2022/01/27 03:44:37;;;;;;;25.20;6.40;;;;;;;0.55;89.51;99886.79;103236;1305;24392;-31
2022/01/27 03:47:03;;;;;;;17.50;7.00;;;;;;;0.57;89.52;99886.33;103263;1305;24289;-30
2022/01/27 03:49:29;;;;;;;15.90;5.50;;;;;;;0.66;89.59;99877.83;103173;1305;24384;-25
2022/01/27 03:51:59;;;;;;;12.70;6.80;;;;;;;0.92;87.61;99877.48;103201;1305;24230;-25
2022/01/27 03:54:25;;;;;;;20.00;7.00;;;;;;;0.64;89.16;99877.30;103235;1305;24203;-26
2022/01/27 03:56:51;;;;;;;11.70;5.30;;;;;;;0.62;88.93;99877.46;103247;1305;24244;-26
2022/01/27 03:59:17;;;;;;;21.30;7.40;;;;;;;0.62;89.11;99880.63;103166;1305;24349;-25
2022/01/27 04:01:43;;;;;;;8.40;4.10;;;;;;;0.49;89.77;99880.41;103221;1305;24290;-30
2022/01/27 04:04:08;;;;;;;13.30;9.20;;;;;;;0.79;88.40;99883.86;103258;1304;22534;-30
2022/01/27 04:06:38;;;;;;;16.50;6.40;;;;;;;0.87;87.74;99881.48;103167;1305;24250;-25
2022/01/27 04:09:04;;;;;;;13.20;8.10;;;;;;;0.60;88.94;99875.30;103251;1305;24334;-25
2022/01/27 04:11:30;;;;;;;13.10;4.70;;;;;;;0.61;88.81;99865.38;102701;1305;750048;-29
2022/01/27 04:13:56;;;;;;;18.10;6.70;;;;;;;0.65;88.96;99864.67;103205;1305;24221;-30
2022/01/27 04:16:21;;;;;;;13.50;4.00;;;;;;;0.66;88.93;99868.88;103220;1305;24334;-30
2022/01/27 04:18:47;;;;;;;15.50;5.60;;;;;;;0.58;89.32;99861.27;103168;1305;24471;-29
2022/01/27 04:21:14;;;;;;;13.40;4.80;;;;;;;0.72;88.95;99849.52;103170;1305;24328;-25
2022/01/27 04:23:40;;;;;;;10.50;4.90;;;;;;;0.48;89.55;99844.72;103206;1305;24341;-25
2022/01/27 04:26:06;;;;;;;9.70;5.70;;;;;;;0.50;89.90;99835.42;103227;1305;24341;-30
2022/01/27 04:28:34;;;;;;;13.10;4.70;;;;;;;0.55;89.71;99836.81;103176;1305;24244;-25
2022/01/27 04:31:04;;;;;;;19.80;7.80;;;;;;;0.39;90.50;99834.70;103274;1305;24180;-30
2022/01/27 04:33:32;;;;;;;17.50;5.50;;;;;;;0.59;89.81;99825.17;103224;1305;22513;-25
2022/01/27 04:36:02;;;;;;;14.90;6.10;;;;;;;0.54;90.10;99823.98;103231;1305;24281;-25
2022/01/27 04:38:35;;;;;;;9.60;4.60;;;;;;;0.59;89.76;99828.53;103193;1305;22717;-25
2022/01/27 04:41:11;;;;;;;13.80;4.10;;;;;;;0.49;90.56;99837.29;103142;1305;24179;-30
2022/01/27 04:46:14;;;;;;;13.30;6.00;;;;;;;0.54;89.58;99831.58;103231;1305;24178;-25
2022/01/27 04:48:45;;;;;;;12.70;4.80;;;;;;;0.68;88.94;99835.55;103170;1305;22518;-25
2022/01/27 04:51:12;;;;;;;12.30;5.20;;;;;;;0.38;90.17;99839.34;103271;1305;24302;-26
2022/01/27 04:53:44;;;;;;;11.40;5.50;;;;;;;0.36;90.38;99827.21;103205;1305;24265;-25
2022/01/27 04:56:13;;;;;;;10.30;4.80;;;;;;;0.48;89.99;99813.84;103211;1305;24338;-30
2022/01/27 04:58:41;;;;;;;6.50;4.20;;;;;;;0.41;90.38;99812.66;103228;1305;24233;-25
2022/01/27 05:01:07;;;;;;;17.30;5.00;;;;;;;0.71;89.62;99807.32;103221;1305;24278;-25
2022/01/27 05:03:40;;;;;;;11.40;4.80;;;;;;;0.70;89.01;99802.23;103204;1304;24301;-26
2022/01/27 05:06:06;;;;;;;8.10;4.40;;;;;;;0.43;89.66;99798.27;103180;1305;24361;-28
2022/01/27 05:08:32;;;;;;;11.10;4.50;;;;;;;0.40;90.10;99795.98;103240;1305;24399;-27
2022/01/27 05:11:03;;;;;;;11.80;4.50;;;;;;;0.47;90.04;99791.80;103209;1305;24278;-25
2022/01/27 05:13:36;;;;;;;6.90;3.20;;;;;;;0.57;89.65;99783.37;103190;1305;24167;-25
2022/01/27 05:16:02;;;;;;;10.10;3.10;;;;;;;0.67;89.18;99783.13;103128;1305;24218;-25
2022/01/27 05:18:28;;;;;;;11.80;4.00;;;;;;;0.45;89.74;99786.81;103182;1305;24388;-25
2022/01/27 05:20:54;;;;;;;14.00;5.70;;;;;;;0.63;89.78;99775.90;103225;1305;22673;-25
2022/01/27 05:23:19;;;;;;;7.50;3.70;;;;;;;0.46;89.68;99771.42;103195;1305;24192;-26
2022/01/27 05:25:45;;;;;;;13.00;5.50;;;;;;;0.44;90.01;99762.77;103199;1305;24407;-30
2022/01/27 05:28:11;;;;;;;6.50;3.40;;;;;;;0.62;89.37;99756.02;103191;1304;24343;-30
2022/01/27 05:30:36;;;;;;;11.00;4.80;;;;;;;0.38;89.56;99768.51;103181;1305;24411;-30
2022/01/27 05:33:02;;;;;;;10.60;5.50;;;;;;;0.47;89.66;99772.95;103178;1305;24274;-30
2022/01/27 05:35:28;;;;;;;10.10;5.00;;;;;;;0.49;88.76;99772.02;103221;1305;24187;-30
2022/01/27 05:37:54;;;;;;;9.20;4.40;;;;;;;0.38;89.45;99761.16;103226;1305;24397;-24
2022/01/27 05:40:21;;;;;;;8.20;3.80;;;;;;;0.42;89.31;99765.23;103238;1305;24204;-30
2022/01/27 05:42:47;;;;;;;7.30;3.30;;;;;;;0.35;89.33;99768.27;103182;1305;24285;-29
2022/01/27 05:45:13;;;;;;;6.60;4.50;;;;;;;0.61;88.54;99768.13;103269;1305;24301;-29
2022/01/27 05:47:38;;;;;;;7.80;2.80;;;;;;;0.38;88.95;99767.00;103231;1305;24220;-30
2022/01/27 05:50:04;;;;;;;17.80;6.10;;;;;;;0.30;89.74;99756.66;103184;1305;22525;-25
2022/01/27 05:52:31;;;;;;;6.60;3.80;;;;;;;0.38;89.21;99757.07;103227;1305;24235;-30
2022/01/27 05:54:57;;;;;;;8.90;1.90;;;;;;;0.47;88.83;99756.21;103175;1305;24203;-30
2022/01/27 05:57:23;;;;;;;8.00;3.50;;;;;;;0.32;89.14;99756.67;103233;1305;24181;-29
2022/01/27 05:59:49;;;;;;;8.50;4.50;;;;;;;0.23;89.28;99761.75;103287;1305;25403;-26
2022/01/27 06:02:14;;;;;;;5.30;3.50;;;;;;;0.34;88.99;99763.04;103200;1305;24316;-25
2022/01/27 06:04:40;;;;;;;6.70;3.20;;;;;;;0.35;88.84;99762.05;103183;1305;24311;-30
2022/01/27 06:07:06;;;;;;;7.90;3.40;;;;;;;0.31;89.00;99757.16;103238;1304;24275;-30
2022/01/27 06:09:32;;;;;;;12.00;5.00;;;;;;;0.25;89.35;99753.20;103184;1305;24234;-30
2022/01/27 06:11:57;;;;;;;9.20;4.20;;;;;;;0.49;88.47;99749.31;103215;1305;24337;-25
2022/01/27 06:14:23;;;;;;;8.40;3.80;;;;;;;0.33;88.87;99752.26;103256;1305;24182;-30
2022/01/27 06:16:49;;;;;;;4.70;2.40;;;;;;;0.28;89.28;99747.70;103107;1305;24246;-25
2022/01/27 06:19:14;;;;;;;7.60;4.10;;;;;;;0.53;87.95;99744.42;103225;1305;24259;-25
2022/01/27 06:21:43;;;;;;;9.30;3.50;;;;;;;0.57;87.55;99747.28;103283;1305;24189;-31
2022/01/27 06:24:09;;;;;;;6.70;3.40;;;;;;;0.57;87.28;99750.11;103277;1305;24199;-26
2022/01/27 06:26:34;;;;;;;6.10;3.60;;;;;;;0.58;87.37;99751.81;103210;1305;24232;-29
2022/01/27 06:29:00;;;;;;;9.70;3.60;;;;;;;0.63;86.60;99747.32;103215;1305;24211;-25
2022/01/27 06:31:26;;;;;;;8.20;4.20;;;;;;;0.37;87.89;99742.02;103007;1306;24294;-30
2022/01/27 06:33:52;;;;;;;6.50;3.10;;;;;;;0.26;88.62;99740.60;103204;1305;24229;-32
2022/01/27 06:36:18;;;;;;;11.70;4.40;;;;;;;0.33;88.79;99741.08;103299;1305;24218;-26
2022/01/27 06:38:45;;;;;;;10.70;4.70;;;;;;;0.40;88.23;99747.20;103211;1305;24341;-30
2022/01/27 06:41:11;;;;;;;7.10;3.80;;;;;;;0.35;88.27;99748.20;103225;1305;24218;-29
2022/01/27 06:43:36;;;;;;;5.20;1.80;;;;;;;0.22;88.44;99740.05;103237;1305;24187;-25
2022/01/27 06:46:03;;;;;;;12.80;4.80;;;;;;;0.44;88.02;99740.39;103202;1305;24272;-29
2022/01/27 06:48:28;;;;;;;13.80;3.70;;;;;;;0.38;88.19;99732.05;103256;1305;24325;-26
2022/01/27 06:50:55;;;;;;;6.60;3.80;;;;;;;0.50;87.95;99722.27;103274;1305;22512;-25
2022/01/27 06:53:21;;;;;;;4.60;2.50;;;;;;;0.75;86.45;99719.38;103271;1305;24297;-25
2022/01/27 06:55:47;;;;;;;15.10;5.80;;;;;;;0.62;86.64;99723.29;103196;1305;24187;-25
2022/01/27 06:58:13;;;;;;;10.40;4.10;;;;;;;0.72;86.70;99722.96;103185;1305;25293;-25
2022/01/27 07:00:39;;;;;;;8.90;3.60;;;;;;;0.49;87.43;99734.73;103201;1305;24321;-29
2022/01/27 07:03:04;;;;;;;9.20;2.60;;;;;;;0.51;88.07;99731.89;103248;1305;24167;-30
2022/01/27 07:05:32;;;;;;;7.50;3.80;;;;;;;0.66;87.15;99731.17;103218;1305;22522;-30
2022/01/27 07:07:58;;;;;;;12.40;5.00;;;;;;;0.52;87.23;99731.09;103113;1305;22515;-26
2022/01/27 07:10:24;;;;;;;6.10;3.00;;;;;;;0.84;86.69;99723.42;103205;1305;24224;-30
2022/01/27 07:12:50;;;;;;;11.00;4.30;;;;;;;0.65;86.79;99714.38;103116;1305;24318;-30
2022/01/27 07:15:16;;;;;;;8.90;4.20;;;;;;;0.83;86.08;99697.06;103173;1305;24266;-30
2022/01/27 07:17:42;;;;;;;9.60;5.20;;;;;;;0.66;86.84;99700.40;103215;1305;22783;-25
2022/01/27 07:20:08;;;;;;;15.30;5.60;;;;;;;0.57;87.37;99702.71;103299;1305;24241;-26
2022/01/27 07:22:35;;;;;;;17.20;5.90;;;;;;;0.58;87.66;99706.00;103357;1305;24328;-25
2022/01/27 07:25:00;;;;;;;12.90;6.10;;;;;;;0.64;86.76;99705.86;103052;1305;24181;-29
2022/01/27 07:27:26;;;;;;;16.30;5.60;;;;;;;0.50;88.14;99707.88;103427;1305;24536;-29
2022/01/27 07:29:52;;;;;;;9.30;4.30;;;;;;;0.64;87.46;99697.88;103776;1306;22556;-28
2022/01/27 07:32:18;;;;;;;9.90;5.00;;;;;;;0.86;86.25;99700.65;103314;1305;22667;-29
2022/01/27 07:34:44;;;;;;;8.60;5.20;;;;;;;0.72;86.62;99699.52;103190;1305;22511;-26
2022/01/27 07:37:09;;;;;;;16.80;9.50;;;;;;;0.65;86.76;99700.09;103155;1305;24339;-30
2022/01/27 07:39:35;;;;;;;15.00;5.90;;;;;;;0.71;86.34;99705.29;103189;1305;24223;-24
2022/01/27 07:42:01;;;;;;;13.50;7.20;;;;;;;0.59;87.23;99698.83;103213;1305;24199;-25
2022/01/27 07:44:28;;;;;;;12.00;4.70;;;;;;;0.72;86.93;99689.48;103291;1305;23820;-30
2022/01/27 07:46:54;;;;;;;14.20;6.40;;;;;;;0.95;86.02;99683.37;103278;1305;22650;-30
2022/01/27 07:49:19;;;;;;;16.30;6.30;;;;;;;0.83;86.64;99678.34;103241;1305;24374;-30
2022/01/27 07:51:45;;;;;;;9.00;5.20;;;;;;;0.98;86.05;99672.51;103216;1305;24383;-25
2022/01/27 07:54:11;;;;;;;14.30;6.00;;;;;;;0.99;85.87;99672.42;103257;1305;24191;-25
2022/01/27 07:56:36;;;;;;;12.00;5.40;;;;;;;0.99;85.79;99672.05;103264;1305;22508;-26
2022/01/27 07:59:03;;;;;;;15.40;6.60;;;;;;;0.98;85.81;99673.27;103065;1305;24366;-30
2022/01/27 08:01:29;;;;;;;12.20;5.50;;;;;;;1.13;85.40;99668.21;103248;1305;22696;-25
2022/01/27 08:03:54;;;;;;;12.10;6.00;;;;;;;1.17;84.75;99664.25;103180;1305;24291;-25
2022/01/27 08:06:20;;;;;;;14.10;6.50;;;;;;;0.93;85.68;99651.80;103249;1305;24189;-32
2022/01/27 08:08:46;;;;;;;12.50;4.20;;;;;;;0.95;86.13;99639.59;103220;1305;24352;-30
2022/01/27 08:11:11;;;;;;;19.30;8.60;;;;;;;1.20;85.01;99639.13;103176;1305;24308;-26
2022/01/27 08:13:37;;;;;;;14.30;6.20;;;;;;;0.99;85.27;99639.25;103149;1305;24340;-25
2022/01/27 08:16:03;;;;;;;12.80;5.80;;;;;;;1.12;85.37;99636.42;103204;1305;24299;-30
2022/01/27 08:18:29;;;;;;;16.20;5.70;;;;;;;0.98;85.52;99645.02;103027;1306;24313;-25
2022/01/27 08:20:55;;;;;;;9.60;5.20;;;;;;;1.13;84.50;99646.36;103043;1306;24327;-29
2022/01/27 08:23:21;;;;;;;10.40;5.40;;;;;;;1.03;84.68;99637.89;103216;1305;24167;-30
2022/01/27 08:25:52;;;;;;;11.60;6.60;;;;;;;0.94;85.57;99637.23;103208;1305;24283;-25
2022/01/27 08:28:28;;;;;;;12.30;6.00;;;;;;;1.01;84.84;99640.71;103196;1305;24192;-29
2022/01/27 08:30:56;;;;;;;10.00;5.40;;;;;;;0.95;85.81;99627.61;103178;1305;24378;-25
2022/01/27 08:33:23;;;;;;;11.30;5.50;;;;;;;1.06;85.80;99624.40;103209;1305;24287;-25
2022/01/27 08:35:49;;;;;;;17.40;7.10;;;;;;;1.26;84.18;99621.48;103046;1305;24330;-25
2022/01/27 08:38:14;;;;;;;12.30;5.20;;;;;;;1.23;84.41;99621.59;103186;1305;24201;-30
2022/01/27 08:40:40;;;;;;;11.00;4.90;;;;;;;1.17;84.65;99621.54;103204;1305;24360;-30
2022/01/27 08:43:08;;;;;;;14.80;6.70;;;;;;;1.43;83.09;99617.48;103079;1305;24346;-30
2022/01/27 08:45:33;;;;;;;9.80;5.00;;;;;;;1.36;83.53;99619.57;103229;1305;24309;-29
2022/01/27 08:48:00;;;;;;;9.60;4.60;;;;;;;1.47;83.11;99622.13;103097;1306;24258;-29
2022/01/27 08:50:27;;;;;;;11.10;6.00;;;;;;;1.61;82.15;99613.84;103250;1305;24196;-30
2022/01/27 08:52:53;;;;;;;13.50;6.30;;;;;;;1.48;82.19;99609.57;103227;1305;24462;-30
2022/01/27 08:55:20;;;;;;;15.30;5.50;;;;;;;1.53;82.90;99600.98;103217;1305;24312;-25
2022/01/27 08:57:46;;;;;;;13.50;6.50;;;;;;;1.49;82.48;99590.69;103260;1306;24505;-30
2022/01/27 09:00:12;;;;;;;14.70;6.60;;;;;;;1.51;82.26;99586.17;103177;1305;24184;-30
2022/01/27 09:02:38;;;;;;;12.00;5.40;;;;;;;1.62;82.05;99585.14;103197;1305;24363;-29
2022/01/27 09:05:04;;;;;;;11.70;6.00;;;;;;;1.55;81.36;99574.29;103138;1305;24325;-25
2022/01/27 09:07:31;;;;;;;15.40;6.70;;;;;;;1.54;81.57;99577.97;103267;1305;24189;-29
2022/01/27 09:09:57;;;;;;;13.50;4.70;;;;;;;1.62;81.22;99571.58;103243;1305;24360;-26
2022/01/27 09:12:23;;;;;;;12.00;6.30;;;;;;;1.65;80.51;99567.09;103244;1305;22866;-26
2022/01/27 09:14:49;;;;;;;14.90;6.30;;;;;;;1.56;81.15;99565.19;103223;1305;24180;-29
2022/01/27 09:17:15;;;;;;;12.70;6.10;;;;;;;1.66;80.49;99574.61;103187;1305;22667;-30
2022/01/27 09:19:42;;;;;;;18.10;7.20;;;;;;;1.83;79.59;99569.00;103275;1305;24390;-26
2022/01/27 09:22:13;;;;;;;14.20;7.20;;;;;;;1.85;79.30;99566.91;103088;1305;24462;-31
2022/01/27 09:24:51;;;;;;;14.00;6.00;;;;;;;1.63;80.09;99567.96;103191;1307;22515;-30
2022/01/27 09:27:18;;;;;;;9.40;5.40;;;;;;;1.83;79.03;99558.04;103182;1305;24301;-30
2022/01/27 09:29:45;;;;;;;10.40;5.00;;;;;;;1.56;79.85;99569.45;103472;1305;22790;-25
2022/01/27 09:32:11;;;;;;;10.00;5.20;;;;;;;1.66;79.14;99567.89;103125;1307;22895;-25
2022/01/27 09:34:38;;;;;;;25.30;6.40;;;;;;;1.76;78.53;99559.74;103224;1305;24233;-30
2022/01/27 09:37:04;;;;;;;24.80;6.10;;;;;;;1.92;78.44;99551.60;103226;1305;22543;-27
2022/01/27 09:39:33;;;;;;;18.20;7.30;;;;;;;1.83;78.08;99545.54;103230;1305;24334;-25
2022/01/27 09:41:59;;;;;;;9.90;5.20;;;;;;;2.04;76.76;99540.52;103204;1305;24201;-25
2022/01/27 09:44:29;;;;;;;16.90;6.20;;;;;;;1.81;77.22;99543.09;103214;1305;24217;-25
2022/01/27 09:46:57;;;;;;;14.40;6.50;;;;;;;1.89;77.11;99537.77;103174;1306;24203;-29
2022/01/27 09:49:33;;;;;;;18.30;8.50;;;;;;;2.13;76.46;99515.11;103230;1305;25479;-29
2022/01/27 09:52:00;;;;;;;15.90;5.00;;;;;;;1.70;77.86;99526.76;103265;1305;24363;-26
2022/01/27 09:54:26;;;;;;;12.90;6.00;;;;;;;1.79;78.21;99532.99;103235;1305;24288;-29
2022/01/27 09:56:53;;;;;;;11.50;6.10;;;;;;;1.86;77.02;99530.27;103211;1305;22530;-27
2022/01/27 09:59:21;;;;;;;14.60;7.30;;;;;;;1.99;75.93;99527.35;103219;1305;24215;-25
2022/01/27 10:01:53;;;;;;;8.60;6.70;;;;;;;1.84;76.66;99536.02;103251;1305;24250;-26
2022/01/27 10:04:19;;;;;;;21.80;8.20;;;;;;;1.65;77.76;99538.10;103174;1305;24336;-25
2022/01/27 10:06:45;;;;;;;13.10;5.80;;;;;;;1.63;77.95;99525.41;103182;1305;22515;-30
2022/01/27 10:09:19;;;;;;;16.70;7.60;;;;;;;1.67;78.10;99525.98;103283;1305;24420;-30
2022/01/27 10:11:47;;;;;;;14.10;6.20;;;;;;;2.07;76.59;99526.05;103274;1305;22611;-30
2022/01/27 10:14:19;;;;;;;25.60;13.60;;;;;;;1.95;76.32;99522.00;103208;1305;24416;-29
2022/01/27 10:16:45;;;;;;;8.80;4.60;;;;;;;1.87;76.29;99511.11;103176;1305;25477;-31
2022/01/27 10:19:11;;;;;;;16.20;5.40;;;;;;;1.50;78.44;99504.15;103234;1305;24339;-25
2022/01/27 10:21:37;;;;;;;11.10;5.90;;;;;;;1.61;78.35;99499.46;103240;1305;24348;-25
2022/01/27 10:24:16;;;;;;;9.50;4.50;;;;;;;1.58;78.52;99494.10;103261;1305;24358;-29
2022/01/27 10:26:45;;;;;;;18.90;8.70;;;;;;;1.65;78.31;99478.18;103144;1305;24218;-32
2022/01/27 10:29:16;;;;;;;10.80;4.40;;;;;;;1.83;77.37;99479.19;103240;1305;22602;-27
2022/01/27 10:31:42;;;;;;;13.60;6.20;;;;;;;1.91;77.97;99473.80;103255;1305;24290;-25
2022/01/27 10:34:10;;;;;;;16.10;6.30;;;;;;;2.09;76.81;99466.55;103157;1305;24196;-29
2022/01/27 10:36:40;;;;;;;11.50;7.20;;;;;;;2.04;76.22;99477.46;103251;1305;24195;-25
2022/01/27 10:39:08;;;;;;;21.90;8.10;;;;;;;2.05;76.42;99483.80;103311;1305;22701;-30
2022/01/27 10:41:35;;;;;;;11.70;5.10;;;;;;;2.19;75.46;99487.00;103198;1305;24281;-25
2022/01/27 10:44:07;;;;;;;12.10;5.70;;;;;;;1.98;76.94;99473.89;103060;1306;24349;-30
2022/01/27 10:46:39;;;;;;;20.30;6.70;;;;;;;2.01;76.60;99457.42;103159;1305;24321;-27
2022/01/27 10:49:10;;;;;;;13.50;6.70;;;;;;;2.06;76.52;99453.77;103307;1305;24254;-25
2022/01/27 10:51:43;;;;;;;14.30;6.10;;;;;;;1.87;77.39;99447.04;103214;1305;24025;-30
2022/01/27 10:54:20;;;;;;;10.60;6.30;;;;;;;1.86;77.95;99450.08;103189;1305;24409;-24
2022/01/27 10:56:46;;;;;;;15.50;6.80;;;;;;;1.99;77.07;99447.65;103192;1305;24329;-30
2022/01/27 10:59:14;;;;;;;15.10;5.80;;;;;;;1.90;77.51;99439.02;103161;1305;24732;-29
2022/01/27 11:01:42;;;;;;;15.30;5.70;;;;;;;1.84;77.74;99428.71;103314;1305;23940;-25
2022/01/27 11:04:09;;;;;;;11.90;6.20;;;;;;;1.91;77.72;99423.34;103163;1305;24277;-30
2022/01/27 11:06:37;;;;;;;9.70;5.30;;;;;;;2.06;77.62;99423.18;103209;1305;22518;-25
2022/01/27 11:09:08;;;;;;;17.10;6.40;;;;;;;2.08;77.16;99410.31;103225;1305;24417;-25
2022/01/27 11:11:35;;;;;;;13.80;5.80;;;;;;;1.99;78.90;99405.51;103171;1305;22521;-25
2022/01/27 11:14:02;;;;;;;24.40;6.90;;;;;;;2.26;77.37;99397.83;103242;1305;24382;-25
2022/01/27 11:16:35;;;;;;;18.40;7.50;;;;;;;2.51;75.66;99390.41;103171;1305;24216;-30
2022/01/27 11:21:36;;;;;;;10.20;4.60;;;;;;;2.04;77.06;99381.85;103244;1305;25425;-30
2022/01/27 11:24:07;;;;;;;18.80;7.00;;;;;;;2.15;77.32;99383.30;103191;1305;24329;-25
2022/01/27 11:26:34;;;;;;;16.80;7.80;;;;;;;2.49;75.96;99374.66;103191;1305;24348;-27
2022/01/27 11:29:01;;;;;;;15.00;6.70;;;;;;;2.39;76.43;99372.22;103204;1305;24233;-31
2022/01/27 11:31:34;;;;;;;14.70;7.50;;;;;;;2.43;76.26;99362.99;103228;1305;22661;-26
2022/01/27 11:34:02;;;;;;;13.50;6.90;;;;;;;2.34;76.84;99346.97;103210;1305;22601;-26
2022/01/27 11:36:29;;;;;;;16.50;7.40;;;;;;;2.54;76.49;99353.82;103295;1305;24248;-26
2022/01/27 11:38:55;;;;;;;19.20;6.70;;;;;;;2.05;79.73;99347.21;103182;1305;23825;-25
2022/01/27 11:41:27;;;;;;;15.60;6.70;;;;;;;2.10;80.34;99341.94;103142;1305;24225;-26
2022/01/27 11:44:20;;;;;;;24.00;8.80;;;;;;;1.94;81.56;99338.17;103191;1305;25403;-30
2022/01/27 11:46:53;;;;;;;20.40;7.80;;;;;;;1.80;82.21;99337.00;103245;1305;24204;-26
2022/01/27 11:49:26;;;;;;;19.70;6.40;;;;;;;1.69;83.55;99334.66;103196;1305;22888;-30
2022/01/27 11:52:15;;;;;;;14.50;6.00;;;;;;;1.45;85.33;99335.04;103247;1305;22992;-25
2022/01/27 11:54:40;;;;;;;20.90;9.30;;;;;;;1.47;86.19;99335.42;103146;1305;24430;-30
2022/01/27 11:57:06;;;;;;;15.70;7.10;;;;;;;1.38;87.03;99331.84;103209;1305;22850;-25
2022/01/27 11:59:36;;;;;;;22.80;9.00;;;;;;;1.08;89.03;99329.04;103166;1305;24196;-24
2022/01/27 12:02:02;;;;;;;23.60;5.90;;;;;;;0.99;89.63;99325.66;103215;1305;24385;-29
2022/01/27 12:04:28;;;;;;;13.80;6.70;;;;;;;1.01;90.03;99320.33;103209;1305;24264;-25
2022/01/27 12:07:03;;;;;;;17.20;9.20;;;;;;;1.38;88.33;99305.20;103172;1305;24155;-30
2022/01/27 12:09:30;;;;;;;19.60;8.80;;;;;;;0.90;90.88;99302.35;102919;1305;459944;-30